sensor_id;sensor_type;location;lat;lon;timestamp;pressure;altitude;pressure_sealevel;temperature;humidity
63190;BME280;49286;44.460;26.114;2023-06-22T00:00:45;100746.28;;;20.74;100.00
63190;BME280;49286;44.460;26.114;2023-06-22T00:03:12;100848.69;;;21.43;100.00
63190;BME280;49286;44.460;26.114;2023-06-22T00:05:37;100822.16;;;21.37;100.00
63190;BME280;49286;44.460;26.114;2023-06-22T00:08:03;100730.84;;;20.58;100.00
63190;BME280;49286;44.460;26.114;2023-06-22T00:10:32;100849.97;;;21.32;100.00
63190;BME280;49286;44.460;26.114;2023-06-22T00:12:57;100854.38;;;21.33;100.00
63190;BME280;49286;44.460;26.114;2023-06-22T00:15:23;100857.00;;;21.34;100.00
63190;BME280;49286;44.460;26.114;2023-06-22T00:17:49;100720.75;;;20.41;100.00
63190;BME280;49286;44.460;26.114;2023-06-22T00:20:15;100723.06;;;20.51;100.00
63190;BME280;49286;44.460;26.114;2023-06-22T00:22:42;100759.69;;;20.72;100.00
63190;BME280;49286;44.460;26.114;2023-06-22T00:25:08;100845.31;;;21.13;100.00
63190;BME280;49286;44.460;26.114;2023-06-22T00:27:35;100851.03;;;21.02;100.00
63190;BME280;49286;44.460;26.114;2023-06-22T00:30:02;100826.06;;;21.05;100.00
63190;BME280;49286;44.460;26.114;2023-06-22T00:32:29;100750.78;;;20.72;100.00
63190;BME280;49286;44.460;26.114;2023-06-22T00:34:55;100830.19;;;21.14;100.00
63190;BME280;49286;44.460;26.114;2023-06-22T00:37:20;100750.97;;;20.67;100.00
63190;BME280;49286;44.460;26.114;2023-06-22T00:39:51;100814.50;;;21.04;100.00
63190;BME280;49286;44.460;26.114;2023-06-22T00:42:17;100708.34;;;20.40;100.00
63190;BME280;49286;44.460;26.114;2023-06-22T00:44:42;100812.59;;;21.08;100.00
63190;BME280;49286;44.460;26.114;2023-06-22T00:47:09;100808.63;;;20.95;100.00
63190;BME280;49286;44.460;26.114;2023-06-22T00:49:34;100761.72;;;20.39;100.00
63190;BME280;49286;44.460;26.114;2023-06-22T00:52:00;100798.22;;;20.63;100.00
63190;BME280;49286;44.460;26.114;2023-06-22T00:54:27;100793.34;;;20.50;100.00
63190;BME280;49286;44.460;26.114;2023-06-22T00:56:54;100683.63;;;19.85;100.00
63190;BME280;49286;44.460;26.114;2023-06-22T00:59:21;100830.06;;;20.68;100.00
63190;BME280;49286;44.460;26.114;2023-06-22T01:01:47;100738.84;;;20.32;100.00
63190;BME280;49286;44.460;26.114;2023-06-22T01:04:13;100699.81;;;20.06;100.00
63190;BME280;49286;44.460;26.114;2023-06-22T01:06:47;100732.97;;;20.49;100.00
63190;BME280;49286;44.460;26.114;2023-06-22T01:09:28;100823.78;;;20.94;100.00
63190;BME280;49286;44.460;26.114;2023-06-22T01:12:06;100804.56;;;20.59;100.00
63190;BME280;49286;44.460;26.114;2023-06-22T01:14:41;100736.34;;;20.27;100.00
63190;BME280;49286;44.460;26.114;2023-06-22T01:17:09;100817.47;;;20.72;100.00
63190;BME280;49286;44.460;26.114;2023-06-22T01:19:39;100824.66;;;20.70;100.00
63190;BME280;49286;44.460;26.114;2023-06-22T01:22:10;100717.38;;;20.11;100.00
63190;BME280;49286;44.460;26.114;2023-06-22T01:29:58;100825.44;;;20.73;100.00
63190;BME280;49286;44.460;26.114;2023-06-22T01:32:31;100727.81;;;20.17;100.00
63190;BME280;49286;44.460;26.114;2023-06-22T01:35:03;100723.66;;;20.09;100.00
63190;BME280;49286;44.460;26.114;2023-06-22T01:37:30;100823.91;;;20.66;100.00
63190;BME280;49286;44.460;26.114;2023-06-22T01:39:58;100735.31;;;20.06;100.00
63190;BME280;49286;44.460;26.114;2023-06-22T01:42:25;100769.59;;;20.17;100.00
63190;BME280;49286;44.460;26.114;2023-06-22T01:44:53;100809.38;;;20.23;100.00
63190;BME280;49286;44.460;26.114;2023-06-22T01:47:20;100680.66;;;19.41;100.00
63190;BME280;49286;44.460;26.114;2023-06-22T01:49:46;100751.56;;;19.72;100.00
63190;BME280;49286;44.460;26.114;2023-06-22T01:52:11;100748.75;;;19.76;100.00
63190;BME280;49286;44.460;26.114;2023-06-22T01:54:39;100822.47;;;20.29;100.00
63190;BME280;49286;44.460;26.114;2023-06-22T01:57:05;100708.94;;;19.72;100.00
63190;BME280;49286;44.460;26.114;2023-06-22T01:59:34;100853.78;;;20.49;100.00
63190;BME280;49286;44.460;26.114;2023-06-22T02:02:08;100747.97;;;19.73;100.00
63190;BME280;49286;44.460;26.114;2023-06-22T02:07:13;100789.88;;;19.94;100.00
63190;BME280;49286;44.460;26.114;2023-06-22T02:09:44;100739.34;;;19.65;100.00
63190;BME280;49286;44.460;26.114;2023-06-22T02:12:11;100748.00;;;19.71;100.00
63190;BME280;49286;44.460;26.114;2023-06-22T02:14:38;100848.63;;;20.44;100.00
63190;BME280;49286;44.460;26.114;2023-06-22T02:17:04;100758.88;;;19.64;100.00
63190;BME280;49286;44.460;26.114;2023-06-22T02:19:36;100758.41;;;19.79;100.00
63190;BME280;49286;44.460;26.114;2023-06-22T02:22:02;100868.19;;;20.43;100.00
63190;BME280;49286;44.460;26.114;2023-06-22T02:24:28;100877.78;;;20.49;100.00
63190;BME280;49286;44.460;26.114;2023-06-22T02:26:57;100852.75;;;20.27;100.00
63190;BME280;49286;44.460;26.114;2023-06-22T02:29:23;100874.78;;;20.32;100.00
63190;BME280;49286;44.460;26.114;2023-06-22T02:31:48;100754.66;;;19.56;100.00
63190;BME280;49286;44.460;26.114;2023-06-22T02:34:14;100891.47;;;20.38;100.00
63190;BME280;49286;44.460;26.114;2023-06-22T02:36:46;100786.16;;;19.72;100.00
63190;BME280;49286;44.460;26.114;2023-06-22T02:39:24;100814.19;;;19.84;100.00
63190;BME280;49286;44.460;26.114;2023-06-22T02:41:50;100912.19;;;20.30;100.00
63190;BME280;49286;44.460;26.114;2023-06-22T02:44:16;100907.72;;;20.31;100.00
63190;BME280;49286;44.460;26.114;2023-06-22T02:46:42;100839.03;;;19.84;100.00
63190;BME280;49286;44.460;26.114;2023-06-22T02:49:08;100803.00;;;19.72;100.00
63190;BME280;49286;44.460;26.114;2023-06-22T02:51:34;100797.69;;;19.72;100.00
63190;BME280;49286;44.460;26.114;2023-06-22T02:54:00;100904.03;;;20.35;100.00
63190;BME280;49286;44.460;26.114;2023-06-22T02:56:28;100908.47;;;20.34;100.00
63190;BME280;49286;44.460;26.114;2023-06-22T02:58:53;100905.91;;;20.31;100.00
63190;BME280;49286;44.460;26.114;2023-06-22T03:01:19;100797.69;;;19.72;100.00
63190;BME280;49286;44.460;26.114;2023-06-22T03:03:49;100788.88;;;19.70;100.00
63190;BME280;49286;44.460;26.114;2023-06-22T03:06:15;100904.03;;;20.35;100.00
63190;BME280;49286;44.460;26.114;2023-06-22T03:08:40;100891.91;;;20.24;100.00
63190;BME280;49286;44.460;26.114;2023-06-22T03:11:07;100896.22;;;20.29;100.00
63190;BME280;49286;44.460;26.114;2023-06-22T03:13:33;100918.41;;;20.29;100.00
63190;BME280;49286;44.460;26.114;2023-06-22T03:16:00;100836.03;;;19.95;100.00
63190;BME280;49286;44.460;26.114;2023-06-22T03:18:25;100897.09;;;20.29;100.00
63190;BME280;49286;44.460;26.114;2023-06-22T03:20:51;100797.78;;;19.69;100.00
63190;BME280;49286;44.460;26.114;2023-06-22T03:23:16;100851.63;;;20.07;100.00
63190;BME280;49286;44.460;26.114;2023-06-22T03:25:42;100876.78;;;20.25;100.00
63190;BME280;49286;44.460;26.114;2023-06-22T03:28:10;100849.03;;;20.04;100.00
63190;BME280;49286;44.460;26.114;2023-06-22T03:30:35;100892.44;;;20.36;100.00
63190;BME280;49286;44.460;26.114;2023-06-22T03:33:01;100819.16;;;19.94;100.00
63190;BME280;49286;44.460;26.114;2023-06-22T03:35:27;100890.44;;;20.42;100.00
63190;BME280;49286;44.460;26.114;2023-06-22T03:37:52;100881.78;;;20.36;100.00
63190;BME280;49286;44.460;26.114;2023-06-22T03:40:18;100859.88;;;20.26;100.00
63190;BME280;49286;44.460;26.114;2023-06-22T03:42:45;100812.41;;;19.84;100.00
63190;BME280;49286;44.460;26.114;2023-06-22T03:45:10;100876.06;;;20.20;100.00
63190;BME280;49286;44.460;26.114;2023-06-22T03:47:36;100781.28;;;19.56;100.00
63190;BME280;49286;44.460;26.114;2023-06-22T03:50:02;100890.72;;;20.07;100.00
63190;BME280;49286;44.460;26.114;2023-06-22T03:52:29;100802.16;;;19.72;100.00
63190;BME280;49286;44.460;26.114;2023-06-22T03:54:55;100877.41;;;20.33;100.00
63190;BME280;49286;44.460;26.114;2023-06-22T03:57:20;100794.88;;;19.77;100.00
63190;BME280;49286;44.460;26.114;2023-06-22T03:59:46;100812.38;;;19.86;100.00
63190;BME280;49286;44.460;26.114;2023-06-22T04:02:12;100825.53;;;20.17;100.00
63190;BME280;49286;44.460;26.114;2023-06-22T04:04:38;100769.59;;;19.90;100.00
63190;BME280;49286;44.460;26.114;2023-06-22T04:07:05;100830.09;;;20.40;100.00
63190;BME280;49286;44.460;26.114;2023-06-22T04:09:30;100808.00;;;20.36;100.00
63190;BME280;49286;44.460;26.114;2023-06-22T04:11:56;100845.41;;;20.61;100.00
63190;BME280;49286;44.460;26.114;2023-06-22T04:14:21;100799.91;;;20.13;100.00
63190;BME280;49286;44.460;26.114;2023-06-22T04:16:47;100837.63;;;20.54;100.00
63190;BME280;49286;44.460;26.114;2023-06-22T04:19:12;100802.31;;;20.47;100.00
63190;BME280;49286;44.460;26.114;2023-06-22T04:21:42;100793.00;;;20.60;100.00
63190;BME280;49286;44.460;26.114;2023-06-22T04:24:08;100844.31;;;20.92;100.00
63190;BME280;49286;44.460;26.114;2023-06-22T04:26:34;100868.81;;;21.03;100.00
63190;BME280;49286;44.460;26.114;2023-06-22T04:29:05;100853.53;;;21.07;100.00
63190;BME280;49286;44.460;26.114;2023-06-22T04:31:34;100795.53;;;20.89;100.00
63190;BME280;49286;44.460;26.114;2023-06-22T04:34:07;100803.66;;;21.09;100.00
63190;BME280;49286;44.460;26.114;2023-06-22T04:36:38;100826.91;;;21.31;100.00
63190;BME280;49286;44.460;26.114;2023-06-22T04:39:15;100855.00;;;21.64;100.00
63190;BME280;49286;44.460;26.114;2023-06-22T04:41:40;100788.41;;;21.36;100.00
63190;BME280;49286;44.460;26.114;2023-06-22T04:44:09;100903.44;;;22.24;100.00
63190;BME280;49286;44.460;26.114;2023-06-22T04:46:35;100883.00;;;22.22;100.00
63190;BME280;49286;44.460;26.114;2023-06-22T04:49:07;100915.06;;;22.45;100.00
63190;BME280;49286;44.460;26.114;2023-06-22T04:51:43;100868.59;;;22.26;100.00
63190;BME280;49286;44.460;26.114;2023-06-22T04:54:09;100876.47;;;22.51;100.00
63190;BME280;49286;44.460;26.114;2023-06-22T04:56:35;100799.53;;;22.15;100.00
63190;BME280;49286;44.460;26.114;2023-06-22T04:59:01;100811.63;;;22.24;100.00
63190;BME280;49286;44.460;26.114;2023-06-22T05:01:28;100908.94;;;22.84;100.00
63190;BME280;49286;44.460;26.114;2023-06-22T05:03:56;100839.91;;;22.72;100.00
63190;BME280;49286;44.460;26.114;2023-06-22T05:06:23;100816.34;;;22.80;100.00
63190;BME280;49286;44.460;26.114;2023-06-22T05:08:56;100918.94;;;23.61;100.00
63190;BME280;49286;44.460;26.114;2023-06-22T05:11:28;100915.19;;;23.65;100.00
63190;BME280;49286;44.460;26.114;2023-06-22T05:13:54;100908.09;;;23.83;100.00
63190;BME280;49286;44.460;26.114;2023-06-22T05:16:20;100891.53;;;24.30;100.00
63190;BME280;49286;44.460;26.114;2023-06-22T05:18:53;100917.81;;;24.95;100.00
63190;BME280;49286;44.460;26.114;2023-06-22T05:21:23;100824.50;;;23.94;100.00
63190;BME280;49286;44.460;26.114;2023-06-22T05:23:50;100826.94;;;24.70;100.00
63190;BME280;49286;44.460;26.114;2023-06-22T05:26:15;100901.53;;;24.98;100.00
63190;BME280;49286;44.460;26.114;2023-06-22T05:28:41;100886.47;;;25.46;100.00
63190;BME280;49286;44.460;26.114;2023-06-22T05:31:06;100811.25;;;25.13;100.00
63190;BME280;49286;44.460;26.114;2023-06-22T05:33:32;100834.72;;;25.58;100.00
63190;BME280;49286;44.460;26.114;2023-06-22T05:35:58;100860.44;;;26.11;100.00
63190;BME280;49286;44.460;26.114;2023-06-22T05:38:23;100917.59;;;26.63;100.00
63190;BME280;49286;44.460;26.114;2023-06-22T05:40:49;100922.28;;;27.04;100.00
63190;BME280;49286;44.460;26.114;2023-06-22T05:43:15;100907.53;;;26.03;100.00
63190;BME280;49286;44.460;26.114;2023-06-22T05:45:40;100907.13;;;26.72;100.00
63190;BME280;49286;44.460;26.114;2023-06-22T05:48:06;100842.72;;;26.84;100.00
63190;BME280;49286;44.460;26.114;2023-06-22T05:50:31;100923.34;;;27.60;100.00
63190;BME280;49286;44.460;26.114;2023-06-22T05:52:57;100901.09;;;27.56;100.00
63190;BME280;49286;44.460;26.114;2023-06-22T05:55:22;100844.38;;;27.58;100.00
63190;BME280;49286;44.460;26.114;2023-06-22T05:57:48;100938.06;;;27.97;100.00
63190;BME280;49286;44.460;26.114;2023-06-22T06:00:13;100879.91;;;27.50;100.00
63190;BME280;49286;44.460;26.114;2023-06-22T06:02:40;100953.09;;;26.69;100.00
63190;BME280;49286;44.460;26.114;2023-06-22T06:05:10;100945.19;;;27.27;100.00
63190;BME280;49286;44.460;26.114;2023-06-22T06:07:36;100923.25;;;26.88;100.00
63190;BME280;49286;44.460;26.114;2023-06-22T06:10:03;100924.88;;;27.35;100.00
63190;BME280;49286;44.460;26.114;2023-06-22T06:12:30;100915.22;;;27.74;100.00
63190;BME280;49286;44.460;26.114;2023-06-22T06:14:55;100952.91;;;27.76;100.00
63190;BME280;49286;44.460;26.114;2023-06-22T06:17:22;100922.38;;;27.90;100.00
63190;BME280;49286;44.460;26.114;2023-06-22T06:19:47;100852.69;;;27.26;100.00
63190;BME280;49286;44.460;26.114;2023-06-22T06:22:12;100880.03;;;27.49;100.00
63190;BME280;49286;44.460;26.114;2023-06-22T06:24:38;100939.34;;;27.04;100.00
63190;BME280;49286;44.460;26.114;2023-06-22T06:27:03;100935.66;;;27.50;100.00
63190;BME280;49286;44.460;26.114;2023-06-22T06:29:30;100931.53;;;27.58;100.00
63190;BME280;49286;44.460;26.114;2023-06-22T06:31:56;100837.94;;;27.46;100.00
63190;BME280;49286;44.460;26.114;2023-06-22T06:34:22;100933.25;;;27.88;100.00
63190;BME280;49286;44.460;26.114;2023-06-22T06:36:47;100835.84;;;27.51;100.00
63190;BME280;49286;44.460;26.114;2023-06-22T06:39:13;100940.84;;;28.10;100.00
63190;BME280;49286;44.460;26.114;2023-06-22T06:41:38;100941.34;;;27.31;100.00
63190;BME280;49286;44.460;26.114;2023-06-22T06:44:04;100846.31;;;27.42;100.00
63190;BME280;49286;44.460;26.114;2023-06-22T06:46:30;100924.84;;;28.07;100.00
63190;BME280;49286;44.460;26.114;2023-06-22T06:48:55;100914.47;;;28.28;100.00
63190;BME280;49286;44.460;26.114;2023-06-22T06:51:21;100933.25;;;28.30;100.00
63190;BME280;49286;44.460;26.114;2023-06-22T06:53:48;100846.78;;;27.77;100.00
63190;BME280;49286;44.460;26.114;2023-06-22T06:56:13;100846.75;;;27.91;100.00
63190;BME280;49286;44.460;26.114;2023-06-22T06:58:41;100864.66;;;27.78;96.78
63190;BME280;49286;44.460;26.114;2023-06-22T07:01:11;100915.53;;;28.26;87.82
63190;BME280;49286;44.460;26.114;2023-06-22T07:03:37;100829.81;;;27.89;96.53
63190;BME280;49286;44.460;26.114;2023-06-22T07:06:03;100861.88;;;27.79;89.40
63190;BME280;49286;44.460;26.114;2023-06-22T07:08:29;100841.31;;;28.06;99.62
63190;BME280;49286;44.460;26.114;2023-06-22T07:10:54;100834.75;;;27.11;99.14
63190;BME280;49286;44.460;26.114;2023-06-22T07:13:20;100845.09;;;27.74;95.26
63190;BME280;49286;44.460;26.114;2023-06-22T07:15:46;100944.72;;;28.48;94.42
63190;BME280;49286;44.460;26.114;2023-06-22T07:18:11;100828.78;;;28.05;100.00
63190;BME280;49286;44.460;26.114;2023-06-22T07:20:37;100862.16;;;28.16;100.00
63190;BME280;49286;44.460;26.114;2023-06-22T07:23:04;100936.94;;;27.87;96.29
63190;BME280;49286;44.460;26.114;2023-06-22T07:25:30;100855.03;;;27.74;100.00
63190;BME280;49286;44.460;26.114;2023-06-22T07:28:03;100921.22;;;26.92;95.53
63190;BME280;49286;44.460;26.114;2023-06-22T07:30:30;100933.38;;;27.87;100.00
63190;BME280;49286;44.460;26.114;2023-06-22T07:32:56;100928.91;;;28.00;99.73
63190;BME280;49286;44.460;26.114;2023-06-22T07:35:23;100917.72;;;28.06;87.41
63190;BME280;49286;44.460;26.114;2023-06-22T07:37:49;100854.34;;;27.99;87.65
63190;BME280;49286;44.460;26.114;2023-06-22T07:40:14;100931.91;;;28.64;81.31
63190;BME280;49286;44.460;26.114;2023-06-22T07:42:40;100920.75;;;27.58;85.43
63190;BME280;49286;44.460;26.114;2023-06-22T07:45:06;100857.75;;;26.88;88.83
63190;BME280;49286;44.460;26.114;2023-06-22T07:47:34;100808.00;;;26.79;91.35
63190;BME280;49286;44.460;26.114;2023-06-22T07:50:00;100847.72;;;26.90;89.20
63190;BME280;49286;44.460;26.114;2023-06-22T07:52:27;100921.44;;;27.17;89.44
63190;BME280;49286;44.460;26.114;2023-06-22T07:54:53;100897.44;;;27.43;91.99
63190;BME280;49286;44.460;26.114;2023-06-22T07:57:19;100829.69;;;27.76;83.03
63190;BME280;49286;44.460;26.114;2023-06-22T07:59:45;100890.78;;;27.77;78.94
63190;BME280;49286;44.460;26.114;2023-06-22T08:02:11;100908.59;;;27.23;86.54
63190;BME280;49286;44.460;26.114;2023-06-22T08:04:37;100831.69;;;27.46;84.52
63190;BME280;49286;44.460;26.114;2023-06-22T08:07:02;100825.97;;;27.65;81.22
63190;BME280;49286;44.460;26.114;2023-06-22T08:09:30;100839.00;;;27.99;78.26
63190;BME280;49286;44.460;26.114;2023-06-22T08:11:56;100903.06;;;28.37;77.91
63190;BME280;49286;44.460;26.114;2023-06-22T08:14:23;100929.50;;;28.05;77.50
63190;BME280;49286;44.460;26.114;2023-06-22T08:16:48;100910.34;;;28.23;79.62
63190;BME280;49286;44.460;26.114;2023-06-22T08:19:15;100828.63;;;27.38;83.12
63190;BME280;49286;44.460;26.114;2023-06-22T08:21:41;100924.97;;;29.00;79.86
63190;BME280;49286;44.460;26.114;2023-06-22T08:24:06;100838.78;;;28.17;79.84
63190;BME280;49286;44.460;26.114;2023-06-22T08:26:32;100933.56;;;28.25;73.83
63190;BME280;49286;44.460;26.114;2023-06-22T08:29:02;100934.63;;;28.23;75.10
63190;BME280;49286;44.460;26.114;2023-06-22T08:31:27;100875.75;;;28.42;74.33
63190;BME280;49286;44.460;26.114;2023-06-22T08:33:53;100863.06;;;28.17;75.62
63190;BME280;49286;44.460;26.114;2023-06-22T08:36:18;100924.31;;;28.29;75.91
63190;BME280;49286;44.460;26.114;2023-06-22T08:38:44;100883.97;;;28.93;72.10
63190;BME280;49286;44.460;26.114;2023-06-22T08:41:10;100873.09;;;29.33;63.54
63190;BME280;49286;44.460;26.114;2023-06-22T08:43:36;100831.13;;;28.64;77.38
63190;BME280;49286;44.460;26.114;2023-06-22T08:46:01;100908.63;;;29.91;75.92
63190;BME280;49286;44.460;26.114;2023-06-22T08:48:28;100926.19;;;29.73;62.10
63190;BME280;49286;44.460;26.114;2023-06-22T08:50:53;100835.28;;;29.20;63.21
63190;BME280;49286;44.460;26.114;2023-06-22T08:53:19;100849.66;;;29.21;72.68
63190;BME280;49286;44.460;26.114;2023-06-22T08:55:44;100916.56;;;29.81;68.97
63190;BME280;49286;44.460;26.114;2023-06-22T08:58:10;100937.53;;;29.27;68.75
63190;BME280;49286;44.460;26.114;2023-06-22T09:00:36;100853.69;;;29.52;64.31
63190;BME280;49286;44.460;26.114;2023-06-22T09:03:02;100867.88;;;30.54;65.88
63190;BME280;49286;44.460;26.114;2023-06-22T09:05:28;100890.34;;;30.43;60.69
63190;BME280;49286;44.460;26.114;2023-06-22T09:07:56;100836.66;;;29.88;62.48
63190;BME280;49286;44.460;26.114;2023-06-22T09:10:24;100917.84;;;30.49;61.26
63190;BME280;49286;44.460;26.114;2023-06-22T09:12:50;100841.44;;;30.33;59.23
63190;BME280;49286;44.460;26.114;2023-06-22T09:15:16;100917.97;;;29.49;61.92
63190;BME280;49286;44.460;26.114;2023-06-22T09:17:42;100832.38;;;29.11;66.74
63190;BME280;49286;44.460;26.114;2023-06-22T09:20:08;100832.63;;;30.18;58.79
63190;BME280;49286;44.460;26.114;2023-06-22T09:22:36;100912.25;;;30.16;59.04
63190;BME280;49286;44.460;26.114;2023-06-22T09:25:01;100912.78;;;30.08;60.01
63190;BME280;49286;44.460;26.114;2023-06-22T09:27:28;100890.13;;;31.17;57.28
63190;BME280;49286;44.460;26.114;2023-06-22T09:29:53;100903.75;;;31.04;57.92
63190;BME280;49286;44.460;26.114;2023-06-22T09:32:19;100834.88;;;30.00;61.14
63190;BME280;49286;44.460;26.114;2023-06-22T09:34:44;100883.06;;;29.95;63.13
63190;BME280;49286;44.460;26.114;2023-06-22T09:37:10;100903.50;;;30.36;64.86
63190;BME280;49286;44.460;26.114;2023-06-22T09:39:35;100842.00;;;30.01;63.76
63190;BME280;49286;44.460;26.114;2023-06-22T09:42:02;100871.25;;;29.96;58.58
63190;BME280;49286;44.460;26.114;2023-06-22T09:44:27;100872.41;;;30.53;62.24
63190;BME280;49286;44.460;26.114;2023-06-22T09:46:53;100825.81;;;30.72;59.88
63190;BME280;49286;44.460;26.114;2023-06-22T09:49:19;100823.28;;;31.61;54.28
63190;BME280;49286;44.460;26.114;2023-06-22T09:51:44;100816.09;;;32.26;53.86
63190;BME280;49286;44.460;26.114;2023-06-22T09:54:10;100797.19;;;31.92;52.53
63190;BME280;49286;44.460;26.114;2023-06-22T09:56:35;100802.91;;;32.53;51.15
63190;BME280;49286;44.460;26.114;2023-06-22T09:59:03;100888.13;;;33.15;50.48
63190;BME280;49286;44.460;26.114;2023-06-22T10:01:28;100801.00;;;32.96;50.24
63190;BME280;49286;44.460;26.114;2023-06-22T10:03:54;100879.72;;;32.76;51.78
63190;BME280;49286;44.460;26.114;2023-06-22T10:06:21;100819.31;;;32.73;52.95
63190;BME280;49286;44.460;26.114;2023-06-22T10:08:46;100783.16;;;32.40;51.27
63190;BME280;49286;44.460;26.114;2023-06-22T10:11:13;100878.59;;;30.90;53.57
63190;BME280;49286;44.460;26.114;2023-06-22T10:13:39;100872.97;;;30.69;53.49
63190;BME280;49286;44.460;26.114;2023-06-22T10:16:04;100813.22;;;31.40;53.69
63190;BME280;49286;44.460;26.114;2023-06-22T10:18:30;100789.16;;;31.90;48.74
63190;BME280;49286;44.460;26.114;2023-06-22T10:20:56;100779.56;;;31.86;49.65
63190;BME280;49286;44.460;26.114;2023-06-22T10:23:21;100870.63;;;31.00;52.32
63190;BME280;49286;44.460;26.114;2023-06-22T10:25:49;100787.44;;;31.12;55.50
63190;BME280;49286;44.460;26.114;2023-06-22T10:28:15;100867.78;;;32.89;49.39
63190;BME280;49286;44.460;26.114;2023-06-22T10:30:41;100603.19;;;30.44;52.04
63190;BME280;49286;44.460;26.114;2023-06-22T10:33:11;100804.16;;;32.17;53.22
63190;BME280;49286;44.460;26.114;2023-06-22T10:35:36;100838.13;;;32.11;52.35
63190;BME280;49286;44.460;26.114;2023-06-22T10:38:06;100844.66;;;32.73;53.24
63190;BME280;49286;44.460;26.114;2023-06-22T10:40:32;100636.69;;;31.21;52.21
63190;BME280;49286;44.460;26.114;2023-06-22T10:42:57;100849.16;;;31.87;53.04
63190;BME280;49286;44.460;26.114;2023-06-22T10:45:22;100847.72;;;30.34;58.39
63190;BME280;49286;44.460;26.114;2023-06-22T10:47:48;100828.94;;;32.24;52.42
63190;BME280;49286;44.460;26.114;2023-06-22T10:50:15;100831.38;;;32.80;49.95
63190;BME280;49286;44.460;26.114;2023-06-22T10:52:41;100833.59;;;31.89;49.65
63190;BME280;49286;44.460;26.114;2023-06-22T10:55:10;100753.13;;;32.53;49.83
63190;BME280;49286;44.460;26.114;2023-06-22T10:57:37;100822.28;;;32.49;51.74
63190;BME280;49286;44.460;26.114;2023-06-22T11:00:04;100717.84;;;32.93;48.93
63190;BME280;49286;44.460;26.114;2023-06-22T11:02:34;100747.34;;;32.67;50.62
63190;BME280;49286;44.460;26.114;2023-06-22T11:05:00;100677.22;;;31.33;53.64
63190;BME280;49286;44.460;26.114;2023-06-22T11:07:26;100781.50;;;31.63;59.22
63190;BME280;49286;44.460;26.114;2023-06-22T11:09:54;100808.88;;;31.38;55.63
63190;BME280;49286;44.460;26.114;2023-06-22T11:12:20;100727.63;;;31.36;50.74
63190;BME280;49286;44.460;26.114;2023-06-22T11:14:45;100741.44;;;32.20;48.59
63190;BME280;49286;44.460;26.114;2023-06-22T11:17:11;100816.16;;;31.15;50.56
63190;BME280;49286;44.460;26.114;2023-06-22T11:19:36;100812.47;;;32.36;51.47
63190;BME280;49286;44.460;26.114;2023-06-22T11:22:02;100789.09;;;32.66;48.27
63190;BME280;49286;44.460;26.114;2023-06-22T11:24:27;100814.34;;;32.36;51.76
63190;BME280;49286;44.460;26.114;2023-06-22T11:26:53;100814.44;;;32.67;52.37
63190;BME280;49286;44.460;26.114;2023-06-22T11:29:19;100792.16;;;31.99;51.64
63190;BME280;49286;44.460;26.114;2023-06-22T11:31:45;100721.63;;;29.83;54.29
63190;BME280;49286;44.460;26.114;2023-06-22T11:34:10;100823.25;;;30.35;56.20
63190;BME280;49286;44.460;26.114;2023-06-22T11:36:36;100807.03;;;30.46;51.93
63190;BME280;49286;44.460;26.114;2023-06-22T11:39:02;100814.66;;;30.17;53.38
63190;BME280;49286;44.460;26.114;2023-06-22T11:41:28;100716.72;;;30.81;51.92
63190;BME280;49286;44.460;26.114;2023-06-22T11:43:53;100762.78;;;31.04;55.74
63190;BME280;49286;44.460;26.114;2023-06-22T11:46:19;100807.31;;;31.90;53.42
63190;BME280;49286;44.460;26.114;2023-06-22T11:48:44;100802.09;;;31.66;51.28
63190;BME280;49286;44.460;26.114;2023-06-22T11:51:12;100783.97;;;31.44;54.94
63190;BME280;49286;44.460;26.114;2023-06-22T11:53:37;100797.91;;;31.05;53.95
63190;BME280;49286;44.460;26.114;2023-06-22T11:56:03;100688.38;;;30.52;53.38
63190;BME280;49286;44.460;26.114;2023-06-22T11:58:28;100727.16;;;30.63;58.06
63190;BME280;49286;44.460;26.114;2023-06-22T12:00:54;100721.09;;;30.60;66.42
63190;BME280;49286;44.460;26.114;2023-06-22T12:03:20;100715.53;;;30.03;58.85
63190;BME280;49286;44.460;26.114;2023-06-22T12:05:50;100785.94;;;30.39;57.25
63190;BME280;49286;44.460;26.114;2023-06-22T12:08:16;100714.09;;;29.75;59.20
63190;BME280;49286;44.460;26.114;2023-06-22T12:10:42;100795.28;;;29.62;59.77
63190;BME280;49286;44.460;26.114;2023-06-22T12:13:08;100705.19;;;29.49;58.01
63190;BME280;49286;44.460;26.114;2023-06-22T12:15:33;100778.16;;;29.75;60.88
63190;BME280;49286;44.460;26.114;2023-06-22T12:17:59;100659.63;;;28.95;60.02
63190;BME280;49286;44.460;26.114;2023-06-22T12:20:24;100761.47;;;29.81;59.90
63190;BME280;49286;44.460;26.114;2023-06-22T12:22:49;100778.50;;;30.54;60.92
63190;BME280;49286;44.460;26.114;2023-06-22T12:25:16;100706.97;;;29.13;64.72
63190;BME280;49286;44.460;26.114;2023-06-22T12:27:42;100666.19;;;29.40;58.50
63190;BME280;49286;44.460;26.114;2023-06-22T12:30:08;100782.34;;;30.27;61.60
63190;BME280;49286;44.460;26.114;2023-06-22T12:32:34;100685.28;;;29.98;77.01
63190;BME280;49286;44.460;26.114;2023-06-22T12:35:00;100673.25;;;30.14;63.58
63190;BME280;49286;44.460;26.114;2023-06-22T12:37:25;100721.47;;;30.08;58.26
63190;BME280;49286;44.460;26.114;2023-06-22T12:39:51;100766.06;;;30.16;61.30